createdAt,value
2022-11-03T00:03:18.896Z,100692.50
2022-11-03T00:08:20.436Z,100686.09
2022-11-03T00:13:21.974Z,100678.53
2022-11-03T00:18:23.560Z,100679.28
2022-11-03T00:23:27.574Z,100675.41
2022-11-03T00:28:31.806Z,100679.66
2022-11-03T00:33:33.575Z,100675.75
2022-11-03T00:38:35.869Z,100653.66
2022-11-03T00:43:37.908Z,100648.41
2022-11-03T00:48:40.115Z,100645.31
2022-11-03T00:53:50.705Z,100640.53
2022-11-03T00:58:53.105Z,100635.56
2022-11-03T01:04:14.972Z,100645.78
2022-11-03T01:09:29.206Z,100647.75
2022-11-03T01:14:38.754Z,100653.25
2022-11-03T01:19:40.399Z,100649.28
2022-11-03T01:24:43.037Z,100643.19
2022-11-03T01:29:44.604Z,100649.22
2022-11-03T01:34:46.175Z,100645.91
2022-11-03T01:39:47.720Z,100637.00
2022-11-03T01:44:51.762Z,100633.31
2022-11-03T01:50:02.324Z,100616.28
2022-11-03T01:55:09.093Z,100610.25
2022-11-03T02:00:11.374Z,100600.75
2022-11-03T02:05:16.700Z,100601.47
2022-11-03T02:10:18.959Z,100593.06
2022-11-03T02:15:22.266Z,100585.94
2022-11-03T02:20:28.196Z,100576.31
2022-11-03T02:25:48.720Z,100559.94
2022-11-03T02:30:58.367Z,100546.41
2022-11-03T02:36:16.046Z,100538.34
2022-11-03T02:41:18.859Z,100529.28
2022-11-03T02:46:21.901Z,100527.94
2022-11-03T02:51:24.803Z,100515.59
2022-11-03T02:56:27.604Z,100512.38
2022-11-03T03:01:37.338Z,100504.16
2022-11-03T03:06:45.648Z,100496.25
2022-11-03T03:11:51.352Z,100490.38
2022-11-03T03:17:04.995Z,100475.34
2022-11-03T03:22:17.432Z,100467.22
2022-11-03T03:27:21.095Z,100453.22
2022-11-03T03:32:25.952Z,100442.03
2022-11-03T03:37:29.377Z,100439.50
2022-11-03T03:42:33.995Z,100439.44
2022-11-03T03:47:36.128Z,100437.47
2022-11-03T03:52:38.247Z,100445.13
2022-11-03T03:57:39.822Z,100433.13
2022-11-03T04:02:41.979Z,100428.97
2022-11-03T04:07:49.239Z,100411.59
2022-11-03T04:13:09.876Z,100410.72
2022-11-03T04:18:30.087Z,100406.28
2022-11-03T04:23:31.652Z,100395.78
2022-11-03T04:28:33.212Z,100398.22
2022-11-03T04:33:34.771Z,100393.66
2022-11-03T04:38:37.370Z,100397.31
2022-11-03T04:43:39.133Z,100396.47
2022-11-03T04:48:40.974Z,100399.25
2022-11-03T04:54:04.320Z,100384.41
2022-11-03T04:59:11.735Z,100380.72
2022-11-03T05:04:16.336Z,100377.84
2022-11-03T05:09:23.084Z,100357.66
2022-11-03T05:14:30.238Z,100353.94
2022-11-03T05:19:40.116Z,100351.31
2022-11-03T05:24:42.492Z,100345.91
2022-11-03T05:29:44.521Z,100354.69
2022-11-03T05:34:47.944Z,100338.72
2022-11-03T05:39:50.724Z,100329.19
2022-11-03T05:44:52.657Z,100311.28
2022-11-03T05:50:16.647Z,100310.97
2022-11-03T05:55:27.004Z,100304.25
2022-11-03T06:00:33.942Z,100300.81
2022-11-03T06:05:35.657Z,100309.91
2022-11-03T06:10:42.095Z,100303.28
2022-11-03T06:15:46.929Z,100307.78
2022-11-03T06:20:56.732Z,100296.50
2022-11-03T06:26:02.751Z,100287.72
2022-11-03T06:31:12.661Z,100279.88
2022-11-03T06:36:26.092Z,100279.31
2022-11-03T06:41:31.014Z,100274.91
2022-11-03T06:46:32.871Z,100272.69
2022-11-03T06:51:35.752Z,100262.31
2022-11-03T06:56:39.572Z,100257.97
2022-11-03T07:01:41.659Z,100265.03
2022-11-03T07:06:43.530Z,100263.41
2022-11-03T07:11:50.085Z,100264.06
2022-11-03T07:17:01.951Z,100255.34
2022-11-03T07:22:29.602Z,100253.72
2022-11-03T07:27:36.443Z,100258.28
2022-11-03T07:32:39.081Z,100246.06
2022-11-03T07:37:40.670Z,100236.81
2022-11-03T07:42:42.299Z,100215.28
2022-11-03T07:47:45.117Z,100203.19
2022-11-03T07:52:46.708Z,100207.22
2022-11-03T07:57:48.353Z,100207.22
2022-11-03T08:02:59.249Z,100191.75
2022-11-03T08:08:00.792Z,100186.97
2022-11-03T08:13:02.527Z,100190.97
2022-11-03T08:18:04.279Z,100180.44
2022-11-03T08:23:24.732Z,100178.72
2022-11-03T08:28:26.778Z,100177.66
2022-11-03T08:38:36.007Z,100185.41
2022-11-03T08:43:37.655Z,100179.56
2022-11-03T08:48:43.133Z,100174.31
2022-11-03T08:53:44.829Z,100174.56
2022-11-03T08:58:47.464Z,100166.84
2022-11-03T09:03:49.055Z,100168.69
2022-11-03T09:14:12.434Z,100159.88
2022-11-03T09:19:14.011Z,100139.78
2022-11-03T09:24:15.558Z,100135.63
2022-11-03T09:29:17.254Z,100141.28
2022-11-03T09:34:18.789Z,100135.91
2022-11-03T09:39:20.352Z,100133.84
2022-11-03T09:44:22.034Z,100130.06
2022-11-03T09:49:23.618Z,100135.78
2022-11-03T09:54:27.321Z,100149.50
2022-11-03T09:59:30.416Z,100151.66
2022-11-03T10:04:32.392Z,100143.56
2022-11-03T10:09:34.378Z,100135.31
2022-11-03T10:14:36.248Z,100133.16
2022-11-03T10:19:37.808Z,100128.84
2022-11-03T10:24:39.442Z,100125.72
2022-11-03T10:29:43.701Z,100127.63
2022-11-03T10:34:47.892Z,100117.56
2022-11-03T10:39:51.423Z,100122.13
2022-11-03T10:44:55.038Z,100120.19
2022-11-03T10:49:56.734Z,100117.13
2022-11-03T10:54:59.598Z,100122.88
2022-11-03T11:00:01.228Z,100132.47
2022-11-03T11:05:13.540Z,100124.72
2022-11-03T11:10:19.833Z,100122.22
2022-11-03T11:15:45.163Z,100131.38
2022-11-03T11:20:46.933Z,100113.00
2022-11-03T11:26:09.819Z,100132.16
2022-11-03T11:31:32.158Z,100118.72
2022-11-03T11:36:33.982Z,100132.47
2022-11-03T11:42:07.836Z,100117.47
2022-11-03T11:47:43.675Z,100120.91
2022-11-03T11:53:29.106Z,100121.53
2022-11-03T11:58:48.482Z,100101.84
2022-11-03T12:03:52.019Z,100067.53
2022-11-03T12:09:04.772Z,100040.84
2022-11-03T12:14:24.596Z,100028.72
2022-11-03T12:19:35.203Z,100033.16
2022-11-03T12:25:01.155Z,100030.44
2022-11-03T12:30:08.788Z,100002.47
2022-11-03T12:35:13.516Z,99995.03
2022-11-03T12:40:15.211Z,99971.06
2022-11-03T12:45:16.760Z,99911.56
2022-11-03T12:50:18.321Z,99836.88
2022-11-03T12:55:19.955Z,99819.72
2022-11-03T13:00:21.675Z,99797.38
2022-11-03T13:05:23.289Z,99755.78
2022-11-03T13:10:24.840Z,99705.78
2022-11-03T13:15:26.423Z,99661.31
2022-11-03T13:20:28.624Z,99626.78
2022-11-03T13:25:30.469Z,99614.63
2022-11-03T13:30:33.662Z,99600.88
2022-11-03T13:35:49.387Z,99591.00
2022-11-03T13:40:56.993Z,99578.03
2022-11-03T13:46:02.579Z,99578.50
2022-11-03T13:51:10.720Z,99566.69
2022-11-03T13:56:18.992Z,99543.44
2022-11-03T14:01:23.654Z,99522.50
2022-11-03T14:06:25.548Z,99503.94
2022-11-03T14:11:45.656Z,99485.06
2022-11-03T14:16:47.408Z,99477.19
2022-11-03T14:21:49.135Z,99470.09
2022-11-03T14:26:50.766Z,99471.63
2022-11-03T14:31:52.364Z,99441.34
2022-11-03T14:37:09.058Z,99431.97
2022-11-03T14:42:16.747Z,99423.16
2022-11-03T14:47:21.521Z,99415.47
2022-11-03T14:52:23.303Z,99410.56
2022-11-03T14:57:24.898Z,99393.78
2022-11-03T15:02:26.543Z,99380.81
2022-11-03T15:07:28.232Z,99360.81
2022-11-03T15:12:29.909Z,99355.56
2022-11-03T15:17:31.567Z,99351.66
2022-11-03T15:27:54.717Z,99344.28
2022-11-03T15:32:57.617Z,99324.38
2022-11-03T15:37:59.252Z,99316.88
2022-11-03T15:43:03.108Z,99322.06
2022-11-03T15:48:05.128Z,99321.53
2022-11-03T15:53:06.693Z,99310.56
2022-11-03T15:58:08.603Z,99305.25
2022-11-03T16:03:10.671Z,99289.75
2022-11-03T16:08:13.410Z,99308.03
2022-11-03T16:13:15.015Z,99305.75
2022-11-03T16:18:16.584Z,99323.81
2022-11-03T16:23:18.186Z,99348.16
2022-11-03T16:28:19.748Z,99350.09
2022-11-03T16:33:21.755Z,99364.56
2022-11-03T16:38:23.311Z,99326.00
2022-11-03T16:43:25.215Z,99300.44
2022-11-03T16:48:26.781Z,99285.38
2022-11-03T16:53:28.423Z,99269.13
2022-11-03T16:58:30.180Z,99249.31
2022-11-03T17:03:32.138Z,99255.81
2022-11-03T17:13:55.334Z,99257.47
2022-11-03T17:18:58.344Z,99249.41
2022-11-03T17:24:00.024Z,99242.56
2022-11-03T17:29:01.692Z,99220.09
2022-11-03T17:34:03.619Z,99219.34
2022-11-03T17:39:05.487Z,99192.88
2022-11-03T17:44:13.612Z,99180.69
2022-11-03T17:49:15.164Z,99168.53
2022-11-03T17:54:17.158Z,99198.91
2022-11-03T17:59:19.044Z,99206.97
2022-11-03T18:04:20.607Z,99200.66
2022-11-03T18:09:22.233Z,99204.63
2022-11-03T18:14:26.322Z,99205.78
2022-11-03T18:19:28.111Z,99208.03
2022-11-03T18:24:31.443Z,99221.09
2022-11-03T18:29:33.013Z,99223.25
2022-11-03T18:34:34.793Z,99234.22
2022-11-03T18:39:37.140Z,99214.06
2022-11-03T18:44:38.737Z,99205.28
2022-11-03T18:49:40.386Z,99214.75
2022-11-03T18:54:47.176Z,99207.25
2022-11-03T18:59:49.626Z,99216.84
2022-11-03T19:04:51.220Z,99207.63
2022-11-03T19:09:52.813Z,99205.53
2022-11-03T19:14:55.624Z,99193.25
2022-11-03T19:19:57.313Z,99176.56
2022-11-03T19:24:58.935Z,99150.47
2022-11-03T19:30:03.734Z,99130.97
2022-11-03T19:35:08.342Z,99131.66
2022-11-03T19:40:16.096Z,99123.88
2022-11-03T19:45:19.677Z,99115.28
2022-11-03T19:50:25.631Z,99114.81
2022-11-03T19:55:31.085Z,99110.41
2022-11-03T20:00:32.751Z,99114.34
2022-11-03T20:05:38.520Z,99102.63
2022-11-03T20:10:40.177Z,99120.56
2022-11-03T20:15:42.007Z,99109.59
2022-11-03T20:20:45.643Z,99098.13
2022-11-03T20:25:47.921Z,99082.09
2022-11-03T20:30:50.031Z,99082.91
2022-11-03T20:35:53.527Z,99081.78
2022-11-03T20:40:59.462Z,99079.03
2022-11-03T20:46:02.020Z,99087.56
2022-11-03T20:51:03.578Z,99090.56
2022-11-03T20:56:05.364Z,99092.84
2022-11-03T21:01:14.839Z,99122.81
2022-11-03T21:06:18.710Z,99150.81
2022-11-03T21:11:23.620Z,99172.88
2022-11-03T21:16:45.797Z,99178.88
2022-11-03T21:21:47.484Z,99161.91
2022-11-03T21:26:49.058Z,99176.19
2022-11-03T21:31:50.680Z,99223.47
2022-11-03T21:36:52.277Z,99236.19
2022-11-03T21:42:12.434Z,99260.31
2022-11-03T21:47:13.999Z,99268.63
2022-11-03T21:52:31.650Z,99282.63
2022-11-03T21:57:33.467Z,99294.28
2022-11-03T22:02:35.054Z,99285.56
2022-11-03T22:07:36.684Z,99287.28
2022-11-03T22:12:38.290Z,99313.56
2022-11-03T22:17:39.871Z,99294.59
2022-11-03T22:23:00.136Z,99345.06
2022-11-03T22:28:01.700Z,99362.38
2022-11-03T22:33:03.367Z,99375.66
2022-11-03T22:38:06.346Z,99375.03
2022-11-03T22:43:27.751Z,99387.47
2022-11-03T22:48:29.950Z,99393.13
2022-11-03T22:53:52.126Z,99362.59
2022-11-03T22:58:54.237Z,99370.78
2022-11-03T23:03:56.126Z,99389.47
2022-11-03T23:08:57.774Z,99400.47
2022-11-03T23:14:10.544Z,99414.81
2022-11-03T23:19:33.267Z,99407.28
2022-11-03T23:24:53.615Z,99402.03
2022-11-03T23:29:55.349Z,99401.38
2022-11-03T23:34:56.962Z,99413.78
2022-11-03T23:39:58.544Z,99412.56
2022-11-03T23:45:18.792Z,99409.69
2022-11-03T23:50:20.407Z,99411.41
2022-11-03T23:55:21.972Z,99396.06
